createdAt,value
2017-09-20T00:00:12.796Z,10.15
2017-09-20T00:01:12.840Z,10.15
2017-09-20T00:02:12.823Z,10.15
2017-09-20T00:03:12.872Z,10.17
2017-09-20T00:04:12.918Z,10.15
2017-09-20T00:05:12.964Z,10.09
2017-09-20T00:06:13.072Z,10.03
2017-09-20T00:07:13.055Z,10.03
2017-09-20T00:08:13.106Z,10.15
2017-09-20T00:09:13.151Z,9.99
2017-09-20T00:10:13.201Z,10.03
2017-09-20T00:11:13.323Z,10.12
2017-09-20T00:12:13.303Z,10.15
2017-09-20T00:13:13.338Z,10.12
2017-09-20T00:14:13.385Z,10.19
2017-09-20T00:15:13.431Z,10.19
2017-09-20T00:16:13.563Z,10.12
2017-09-20T00:17:13.532Z,10.18
2017-09-20T00:18:13.573Z,10.07
2017-09-20T00:19:13.620Z,10.07
2017-09-20T00:20:13.666Z,10.15
2017-09-20T00:21:13.776Z,10.07
2017-09-20T00:22:13.820Z,10.15
2017-09-20T00:23:13.808Z,10.18
2017-09-20T00:24:13.855Z,10.12
2017-09-20T00:25:13.900Z,10.15
2017-09-20T00:26:13.948Z,10.14
2017-09-20T00:27:14.897Z,10.22
2017-09-20T00:28:14.051Z,10.22
2017-09-20T00:29:14.089Z,10.21
2017-09-20T00:30:14.131Z,10.17
2017-09-20T00:31:14.182Z,10.19
2017-09-20T00:32:14.291Z,10.18
2017-09-20T00:33:14.275Z,10.15
2017-09-20T00:34:14.321Z,10.18
2017-09-20T00:35:14.370Z,10.14
2017-09-20T00:36:14.414Z,10.17
2017-09-20T00:37:14.529Z,10.19
2017-09-20T00:38:14.510Z,10.10
2017-09-20T00:39:14.556Z,10.07
2017-09-20T00:40:14.603Z,10.14
2017-09-20T00:41:14.647Z,10.06
2017-09-20T00:42:14.759Z,10.07
2017-09-20T00:43:14.745Z,10.09
2017-09-20T00:44:14.792Z,10.04
2017-09-20T00:45:14.837Z,10.15
2017-09-20T00:46:14.884Z,10.18
2017-09-20T00:47:15.005Z,10.12
2017-09-20T00:48:14.979Z,10.15
2017-09-20T00:49:15.026Z,10.17
2017-09-20T00:50:15.072Z,10.19
2017-09-20T00:51:15.118Z,10.25
2017-09-20T00:52:15.247Z,10.12
2017-09-20T00:53:15.214Z,10.15
2017-09-20T00:54:15.258Z,10.18
2017-09-20T00:55:15.307Z,10.14
2017-09-20T00:56:15.356Z,10.06
2017-09-20T00:57:15.485Z,10.04
2017-09-20T00:58:15.446Z,10.10
2017-09-20T00:59:15.493Z,10.18
2017-09-20T01:00:15.539Z,10.14
2017-09-20T01:01:15.588Z,10.03
2017-09-20T01:02:15.714Z,10.04
2017-09-20T01:03:15.679Z,10.14
2017-09-20T01:04:15.730Z,10.17
2017-09-20T01:05:15.774Z,10.14
2017-09-20T01:06:15.818Z,10.26
2017-09-20T01:07:15.933Z,10.22
2017-09-20T01:08:15.989Z,10.24
2017-09-20T01:09:15.960Z,10.30
2017-09-20T01:10:16.006Z,10.24
2017-09-20T01:11:16.055Z,10.14
2017-09-20T01:12:16.101Z,10.18
2017-09-20T01:13:16.212Z,10.17
2017-09-20T01:14:16.194Z,10.18
2017-09-20T01:15:16.244Z,10.15
2017-09-20T01:16:16.291Z,10.24
2017-09-20T01:17:16.336Z,10.25
2017-09-20T01:18:16.457Z,10.33
2017-09-20T01:19:16.429Z,10.26
2017-09-20T01:20:16.476Z,10.33
2017-09-20T01:21:16.528Z,10.26
2017-09-20T01:22:16.571Z,10.36
2017-09-20T01:23:16.681Z,10.36
2017-09-20T01:24:16.736Z,10.37
2017-09-20T01:25:16.713Z,10.36
2017-09-20T01:26:16.754Z,10.28
2017-09-20T01:27:16.810Z,10.15
2017-09-20T01:28:16.857Z,10.15
2017-09-20T01:29:16.965Z,10.15
2017-09-20T01:30:16.945Z,10.15
2017-09-20T01:31:16.993Z,10.15
2017-09-20T01:32:17.041Z,10.14
2017-09-20T01:33:17.087Z,10.17
2017-09-20T01:34:17.200Z,10.25
2017-09-20T01:35:17.180Z,10.28
2017-09-20T01:36:17.229Z,10.21
2017-09-20T01:37:17.275Z,10.24
2017-09-20T01:38:17.322Z,10.22
2017-09-20T01:39:17.431Z,10.25
2017-09-20T01:40:17.415Z,10.19
2017-09-20T01:41:17.461Z,10.25
2017-09-20T01:42:17.511Z,10.18
2017-09-20T01:43:17.557Z,10.14
2017-09-20T01:44:17.667Z,10.15
2017-09-20T01:45:17.655Z,10.14
2017-09-20T01:46:17.696Z,10.14
2017-09-20T01:47:17.745Z,10.21
2017-09-20T01:48:17.789Z,10.15
2017-09-20T01:49:17.902Z,10.19
2017-09-20T01:50:17.884Z,10.12
2017-09-20T01:51:17.931Z,10.18
2017-09-20T01:52:17.977Z,10.07
2017-09-20T01:53:18.024Z,10.15
2017-09-20T01:54:18.139Z,10.06
2017-09-20T01:55:18.119Z,10.03
2017-09-20T01:56:18.170Z,10.01
2017-09-20T01:57:18.212Z,10.06
2017-09-20T01:58:18.262Z,10.09
2017-09-20T01:59:18.393Z,10.04
2017-09-20T02:00:18.359Z,10.06
2017-09-20T02:01:18.403Z,10.10
2017-09-20T02:02:18.447Z,10.04
2017-09-20T02:03:18.496Z,10.09
2017-09-20T02:04:18.619Z,10.14
2017-09-20T02:05:18.590Z,10.10
2017-09-20T02:06:18.635Z,10.10
2017-09-20T02:07:18.679Z,10.09
2017-09-20T02:08:18.728Z,10.03
2017-09-20T02:09:18.847Z,10.10
2017-09-20T02:10:18.885Z,10.09
2017-09-20T02:11:18.870Z,10.10
2017-09-20T02:12:18.916Z,10.15
2017-09-20T02:13:18.960Z,10.07
2017-09-20T02:14:19.014Z,10.10
2017-09-20T02:15:19.119Z,10.06
2017-09-20T02:16:19.102Z,10.01
2017-09-20T02:17:19.149Z,10.06
2017-09-20T02:18:19.195Z,10.07
2017-09-20T02:19:19.242Z,10.04
2017-09-20T02:20:19.484Z,10.19
2017-09-20T02:21:19.340Z,10.09
2017-09-20T02:22:19.388Z,10.18
2017-09-20T02:23:19.427Z,10.19
2017-09-20T02:24:19.476Z,10.14
2017-09-20T02:25:19.597Z,10.15
2017-09-20T02:26:19.569Z,10.19
2017-09-20T02:27:19.618Z,10.14
2017-09-20T02:28:19.667Z,10.15
2017-09-20T02:29:19.711Z,10.22
2017-09-20T02:30:19.832Z,10.26
2017-09-20T02:31:19.802Z,10.14
2017-09-20T02:32:19.852Z,10.18
2017-09-20T02:33:19.900Z,10.15
2017-09-20T02:34:19.945Z,10.17
2017-09-20T02:35:20.056Z,10.18
2017-09-20T02:36:20.100Z,10.15
2017-09-20T02:37:20.088Z,10.15
2017-09-20T02:38:20.129Z,10.14
2017-09-20T02:39:20.181Z,10.12
2017-09-20T02:40:20.233Z,10.18
2017-09-20T02:41:20.337Z,10.19
2017-09-20T02:42:20.320Z,10.15
2017-09-20T02:43:20.367Z,10.15
2017-09-20T02:44:20.411Z,10.17
2017-09-20T02:45:20.460Z,10.17
2017-09-20T02:46:20.570Z,10.17
2017-09-20T02:47:20.556Z,10.07
2017-09-20T02:48:20.602Z,10.07
2017-09-20T02:49:20.648Z,10.07
2017-09-20T02:50:20.697Z,10.09
2017-09-20T02:51:20.806Z,10.14
2017-09-20T02:52:20.788Z,10.07
2017-09-20T02:53:20.837Z,10.18
2017-09-20T02:54:20.885Z,10.18
2017-09-20T02:55:20.926Z,10.15
2017-09-20T02:56:21.049Z,10.15
2017-09-20T02:57:21.024Z,10.14
2017-09-20T02:58:21.068Z,10.14
2017-09-20T02:59:21.116Z,10.24
2017-09-20T03:00:21.162Z,10.24
2017-09-20T03:01:21.274Z,10.22
2017-09-20T03:02:21.320Z,10.28
2017-09-20T03:03:21.304Z,10.25
2017-09-20T03:04:21.350Z,10.28
2017-09-20T03:05:21.396Z,10.26
2017-09-20T03:06:21.442Z,10.25
2017-09-20T03:07:21.552Z,10.24
2017-09-20T03:08:21.538Z,10.15
2017-09-20T03:09:21.585Z,10.25
2017-09-20T03:10:21.631Z,10.22
2017-09-20T03:11:21.683Z,10.14
2017-09-20T03:12:21.784Z,10.15
2017-09-20T03:13:21.773Z,10.17
2017-09-20T03:14:21.816Z,10.15
2017-09-20T03:15:21.865Z,10.17
2017-09-20T03:16:21.915Z,10.15
2017-09-20T03:17:22.027Z,10.14
2017-09-20T03:18:22.005Z,10.14
2017-09-20T03:19:22.052Z,10.09
2017-09-20T03:20:22.100Z,10.09
2017-09-20T03:21:22.146Z,10.19
2017-09-20T03:22:22.257Z,10.10
2017-09-20T03:23:22.240Z,10.07
2017-09-20T03:24:22.288Z,10.06
2017-09-20T03:25:22.330Z,10.03
2017-09-20T03:26:22.379Z,10.07
2017-09-20T03:27:22.503Z,10.06
2017-09-20T03:28:22.474Z,10.17
2017-09-20T03:29:22.524Z,10.07
2017-09-20T03:30:22.570Z,9.96
2017-09-20T03:31:22.614Z,10.00
2017-09-20T03:32:22.726Z,10.04
2017-09-20T03:33:22.773Z,10.06
2017-09-20T03:34:22.756Z,9.96
2017-09-20T03:35:22.804Z,10.04
2017-09-20T03:36:22.847Z,9.99
2017-09-20T03:37:22.900Z,9.96
2017-09-20T03:38:23.042Z,9.99
2017-09-20T03:39:22.988Z,10.09
2017-09-20T03:40:23.037Z,10.06
2017-09-20T03:41:23.083Z,10.04
2017-09-20T03:42:23.127Z,9.97
2017-09-20T03:43:23.240Z,10.06
2017-09-20T03:44:23.289Z,10.04
2017-09-20T03:45:23.269Z,10.18
2017-09-20T03:46:23.315Z,10.04
2017-09-20T03:47:23.362Z,10.17
2017-09-20T03:48:23.408Z,10.09
2017-09-20T03:49:23.521Z,10.01
2017-09-20T03:50:23.502Z,10.10
2017-09-20T03:51:23.553Z,10.10
2017-09-20T03:52:23.597Z,10.03
2017-09-20T03:53:23.643Z,10.03
2017-09-20T03:54:23.753Z,10.01
2017-09-20T03:55:23.736Z,10.04
2017-09-20T03:56:23.784Z,10.06
2017-09-20T03:57:23.832Z,9.91
2017-09-20T03:58:23.876Z,10.06
2017-09-20T03:59:23.985Z,10.06
2017-09-20T04:00:23.970Z,10.04
2017-09-20T04:01:24.017Z,9.97
2017-09-20T04:02:24.065Z,10.06
2017-09-20T04:03:24.110Z,10.03
2017-09-20T04:04:24.243Z,9.99
2017-09-20T04:05:24.206Z,10.03
2017-09-20T04:06:24.253Z,10.12
2017-09-20T04:07:24.296Z,10.03
2017-09-20T04:08:24.340Z,10.04
2017-09-20T04:09:24.466Z,10.03
2017-09-20T04:10:24.435Z,10.07
2017-09-20T04:11:24.482Z,10.07
2017-09-20T04:12:24.531Z,10.07
2017-09-20T04:13:24.577Z,10.04
2017-09-20T04:14:24.687Z,10.03
2017-09-20T04:15:24.731Z,10.03
2017-09-20T04:16:24.722Z,10.14
2017-09-20T04:17:24.763Z,10.03
2017-09-20T04:18:24.809Z,10.06
2017-09-20T04:19:24.856Z,10.07
2017-09-20T04:20:24.968Z,10.00
2017-09-20T04:21:24.952Z,10.04
2017-09-20T04:22:25.003Z,10.04
2017-09-20T04:23:25.044Z,10.06
2017-09-20T04:24:25.090Z,10.10
2017-09-20T04:25:25.224Z,10.14
2017-09-20T04:26:25.187Z,10.10
2017-09-20T04:27:25.227Z,10.09
2017-09-20T04:28:25.276Z,10.04
2017-09-20T04:29:25.324Z,10.06
2017-09-20T04:30:25.444Z,10.01
2017-09-20T04:31:25.422Z,10.01
2017-09-20T04:32:25.464Z,10.09
2017-09-20T04:33:25.511Z,10.00
2017-09-20T04:34:25.554Z,9.99
2017-09-20T04:35:25.682Z,9.94
2017-09-20T04:36:26.411Z,9.96
2017-09-20T04:37:25.699Z,10.07
2017-09-20T04:38:25.746Z,10.10
2017-09-20T04:39:25.795Z,10.04
2017-09-20T04:40:25.839Z,10.01
2017-09-20T04:41:25.950Z,10.06
2017-09-20T04:42:25.932Z,10.14
2017-09-20T04:43:25.981Z,10.15
2017-09-20T04:44:26.027Z,10.17
2017-09-20T04:45:26.073Z,10.14
2017-09-20T04:46:26.189Z,10.15
2017-09-20T04:47:26.167Z,10.14
2017-09-20T04:48:26.213Z,10.15
2017-09-20T04:49:26.257Z,10.14
2017-09-20T04:50:26.311Z,10.12
2017-09-20T04:51:26.420Z,10.14
2017-09-20T04:52:26.402Z,10.15
2017-09-20T04:53:26.448Z,10.21
2017-09-20T04:54:26.494Z,10.17
2017-09-20T04:55:26.541Z,10.09
2017-09-20T04:56:26.669Z,10.09
2017-09-20T04:57:26.636Z,10.12
2017-09-20T04:58:26.679Z,10.18
2017-09-20T04:59:26.730Z,10.12
2017-09-20T05:00:26.776Z,10.15
2017-09-20T05:01:26.885Z,10.04
2017-09-20T05:02:26.932Z,10.04
2017-09-20T05:03:26.915Z,10.03
2017-09-20T05:04:26.963Z,10.01
2017-09-20T05:05:27.013Z,10.03
2017-09-20T05:06:27.057Z,9.94
2017-09-20T05:07:27.164Z,9.96
2017-09-20T05:08:27.150Z,10.06
2017-09-20T05:09:27.196Z,10.01
2017-09-20T05:10:27.242Z,9.97
2017-09-20T05:11:27.289Z,9.96
2017-09-20T05:12:27.399Z,10.03
2017-09-20T05:13:27.385Z,9.99
2017-09-20T05:14:27.430Z,10.03
2017-09-20T05:15:27.480Z,10.07
2017-09-20T05:16:27.529Z,9.94
2017-09-20T05:17:27.636Z,10.07
2017-09-20T05:18:27.616Z,10.14
2017-09-20T05:19:27.666Z,10.06
2017-09-20T05:20:27.713Z,10.03
2017-09-20T05:21:27.758Z,10.07
2017-09-20T05:22:27.879Z,10.07
2017-09-20T05:23:27.849Z,10.03
2017-09-20T05:24:27.897Z,10.18
2017-09-20T05:25:27.945Z,10.12
2017-09-20T05:26:27.991Z,10.07
2017-09-20T05:27:28.106Z,10.07
2017-09-20T05:28:28.149Z,10.03
2017-09-20T05:29:28.132Z,10.04
2017-09-20T05:30:28.918Z,10.06
2017-09-20T05:31:28.225Z,10.03
2017-09-20T05:32:28.271Z,10.06
2017-09-20T05:33:28.383Z,10.06
2017-09-20T05:34:28.362Z,10.14
2017-09-20T05:35:28.408Z,10.09
2017-09-20T05:36:28.458Z,10.18
2017-09-20T05:37:28.506Z,10.03
2017-09-20T05:38:28.635Z,10.07
2017-09-20T05:39:28.596Z,10.17
2017-09-20T05:40:28.646Z,10.06
2017-09-20T05:41:28.692Z,10.07
2017-09-20T05:42:28.739Z,10.07
2017-09-20T05:43:28.849Z,10.04
2017-09-20T05:44:28.895Z,10.06
2017-09-20T05:45:28.881Z,10.03
2017-09-20T05:46:28.924Z,10.15
2017-09-20T05:47:28.968Z,10.15
2017-09-20T05:48:29.020Z,10.14
2017-09-20T05:49:29.130Z,10.09
2017-09-20T05:50:29.110Z,10.03
2017-09-20T05:51:29.159Z,10.07
2017-09-20T05:52:29.206Z,10.04
2017-09-20T05:53:29.252Z,10.12
2017-09-20T05:54:29.381Z,10.07
2017-09-20T05:55:29.351Z,10.09
2017-09-20T05:56:29.391Z,10.06
2017-09-20T05:57:29.441Z,10.00
2017-09-20T05:58:29.484Z,10.07
2017-09-20T05:59:29.619Z,10.06
2017-09-20T06:00:29.580Z,10.01
2017-09-20T06:01:29.629Z,10.06
2017-09-20T06:02:29.673Z,10.09
2017-09-20T06:03:29.719Z,10.04
2017-09-20T06:04:29.844Z,10.04
2017-09-20T06:05:29.812Z,10.07
2017-09-20T06:06:29.858Z,10.06
2017-09-20T06:07:29.904Z,9.91
2017-09-20T06:08:29.954Z,10.04
2017-09-20T06:09:30.082Z,10.10
2017-09-20T06:10:30.047Z,10.04
2017-09-20T06:11:30.093Z,10.01
2017-09-20T06:12:30.139Z,10.09
2017-09-20T06:13:30.185Z,9.99
2017-09-20T06:14:30.304Z,10.04
2017-09-20T06:15:30.345Z,10.06
2017-09-20T06:16:30.328Z,10.09
2017-09-20T06:17:30.374Z,10.03
2017-09-20T06:18:30.419Z,10.04
2017-09-20T06:19:30.468Z,10.07
2017-09-20T06:20:30.577Z,10.09
2017-09-20T06:21:30.558Z,10.10
2017-09-20T06:22:30.606Z,10.09
2017-09-20T06:23:30.656Z,10.21
2017-09-20T06:24:30.700Z,10.03
2017-09-20T06:25:30.815Z,10.04
2017-09-20T06:26:30.795Z,10.15
2017-09-20T06:27:30.842Z,10.21
2017-09-20T06:28:30.888Z,10.15
2017-09-20T06:29:30.937Z,10.14
2017-09-20T06:30:31.046Z,10.14
2017-09-20T06:31:31.028Z,10.17
2017-09-20T06:32:31.073Z,10.10
2017-09-20T06:33:31.122Z,10.15
2017-09-20T06:34:31.173Z,10.15
2017-09-20T06:35:31.282Z,10.17
2017-09-20T06:36:31.261Z,10.14
2017-09-20T06:37:31.308Z,10.06
2017-09-20T06:38:31.352Z,10.14
2017-09-20T06:39:31.401Z,10.10
2017-09-20T06:40:31.530Z,10.17
2017-09-20T06:41:31.494Z,10.19
2017-09-20T06:42:32.065Z,10.14
2017-09-20T06:43:31.584Z,10.12
2017-09-20T06:44:31.638Z,10.12
2017-09-20T06:45:31.746Z,10.17
2017-09-20T06:46:31.790Z,10.15
2017-09-20T06:47:31.775Z,10.17
2017-09-20T06:48:31.822Z,10.15
2017-09-20T06:49:31.874Z,10.14
2017-09-20T06:50:31.915Z,10.14
2017-09-20T06:51:32.027Z,10.12
2017-09-20T06:52:32.010Z,10.15
2017-09-20T06:53:32.056Z,10.17
2017-09-20T06:54:32.103Z,10.09
2017-09-20T06:55:32.155Z,10.07
2017-09-20T06:56:32.265Z,10.14
2017-09-20T06:57:32.245Z,10.21
2017-09-20T06:58:32.289Z,10.10
2017-09-20T06:59:32.338Z,10.17
2017-09-20T07:00:32.385Z,10.17
2017-09-20T07:01:32.500Z,10.14
2017-09-20T07:02:32.478Z,10.21
2017-09-20T07:03:32.524Z,10.24
2017-09-20T07:04:32.567Z,10.32
2017-09-20T07:05:32.619Z,10.25
2017-09-20T07:06:32.732Z,10.33
2017-09-20T07:07:32.712Z,10.34
2017-09-20T07:08:32.758Z,10.40
2017-09-20T07:09:32.805Z,10.36
2017-09-20T07:10:32.852Z,10.47
2017-09-20T07:11:32.961Z,10.44
2017-09-20T07:12:33.018Z,10.43
2017-09-20T07:13:32.993Z,10.53
2017-09-20T07:14:33.042Z,10.53
2017-09-20T07:15:33.086Z,10.59
2017-09-20T07:16:33.130Z,10.60
2017-09-20T07:17:33.281Z,10.62
2017-09-20T07:18:33.226Z,10.63
2017-09-20T07:19:33.275Z,10.62
2017-09-20T07:20:33.321Z,10.55
2017-09-20T07:21:33.367Z,10.58
2017-09-20T07:22:33.499Z,10.63
2017-09-20T07:23:33.466Z,10.63
2017-09-20T07:24:33.509Z,10.62
2017-09-20T07:25:33.556Z,10.65
2017-09-20T07:26:33.602Z,10.77
2017-09-20T07:27:33.728Z,10.77
2017-09-20T07:28:33.693Z,10.80
2017-09-20T07:29:33.744Z,10.83
2017-09-20T07:30:33.790Z,10.81
2017-09-20T07:31:33.837Z,10.83
2017-09-20T07:32:33.957Z,10.80
2017-09-20T07:33:33.932Z,10.68
2017-09-20T07:34:33.979Z,10.77
2017-09-20T07:35:34.025Z,10.77
2017-09-20T07:36:34.072Z,10.71
2017-09-20T07:37:34.184Z,10.65
2017-09-20T07:38:34.230Z,10.68
2017-09-20T07:39:34.214Z,10.68
2017-09-20T07:40:34.263Z,10.59
2017-09-20T07:41:34.309Z,10.68
2017-09-20T07:42:34.353Z,10.66
2017-09-20T07:43:34.466Z,10.68
2017-09-20T07:44:34.448Z,10.78
2017-09-20T07:45:34.498Z,10.73
2017-09-20T07:46:34.544Z,10.68
2017-09-20T07:47:34.593Z,10.68
2017-09-20T07:48:34.703Z,10.62
2017-09-20T07:49:34.689Z,10.59
2017-09-20T07:50:34.730Z,10.58
2017-09-20T07:51:34.775Z,10.60
2017-09-20T07:52:34.825Z,10.52
2017-09-20T07:53:34.944Z,10.44
2017-09-20T07:54:34.916Z,10.51
2017-09-20T07:55:34.967Z,10.44
2017-09-20T07:56:35.014Z,10.52
2017-09-20T07:57:35.060Z,10.46
2017-09-20T07:58:35.173Z,10.52
2017-09-20T07:59:35.156Z,10.53
2017-09-20T08:00:35.202Z,10.52
2017-09-20T08:01:35.248Z,10.43
2017-09-20T08:02:35.295Z,10.33
2017-09-20T08:03:35.429Z,10.39
2017-09-20T08:04:35.388Z,10.40
2017-09-20T08:05:35.437Z,10.39
2017-09-20T08:06:35.483Z,10.43
2017-09-20T08:07:35.535Z,10.32
2017-09-20T08:08:35.650Z,10.33
2017-09-20T08:09:35.622Z,10.32
2017-09-20T08:10:35.666Z,10.28
2017-09-20T08:11:35.715Z,10.26
2017-09-20T08:12:35.767Z,10.26
2017-09-20T08:13:39.023Z,10.25
2017-09-20T08:14:35.858Z,10.32
2017-09-20T08:15:35.904Z,10.32
2017-09-20T08:16:35.950Z,10.32
2017-09-20T08:17:36.002Z,10.32
2017-09-20T08:18:36.040Z,10.37
2017-09-20T08:19:36.156Z,10.36
2017-09-20T08:20:36.144Z,10.30
2017-09-20T08:21:36.185Z,10.36
2017-09-20T08:22:36.231Z,10.34
2017-09-20T08:23:36.278Z,10.37
2017-09-20T08:24:36.390Z,10.33
2017-09-20T08:25:36.374Z,10.36
2017-09-20T08:26:36.417Z,10.36
2017-09-20T08:27:36.466Z,10.37
2017-09-20T08:28:36.513Z,10.37
2017-09-20T08:29:36.628Z,10.32
2017-09-20T08:30:36.606Z,10.40
2017-09-20T08:31:36.651Z,10.33
2017-09-20T08:32:36.704Z,10.37
2017-09-20T08:33:36.748Z,10.37
2017-09-20T08:34:36.886Z,10.42
2017-09-20T08:35:36.840Z,10.36
2017-09-20T08:36:36.887Z,10.47
2017-09-20T08:37:36.938Z,10.53
2017-09-20T08:38:36.985Z,10.44
2017-09-20T08:39:37.111Z,10.55
2017-09-20T08:40:37.076Z,10.55
2017-09-20T08:41:37.122Z,10.56
2017-09-20T08:42:37.168Z,10.55
2017-09-20T08:43:37.214Z,10.55
2017-09-20T08:44:37.510Z,10.53
2017-09-20T08:45:37.307Z,10.63
2017-09-20T08:46:37.353Z,10.55
2017-09-20T08:47:37.403Z,10.56
2017-09-20T08:48:37.450Z,10.63
2017-09-20T08:49:37.496Z,10.60
2017-09-20T08:50:37.606Z,10.53
2017-09-20T08:51:37.591Z,10.62
2017-09-20T08:52:37.637Z,10.65
2017-09-20T08:53:37.692Z,10.65
2017-09-20T08:54:37.736Z,10.71
2017-09-20T08:55:37.841Z,10.73
2017-09-20T08:56:37.829Z,10.76
2017-09-20T08:57:37.872Z,10.81
2017-09-20T08:58:37.919Z,10.78
2017-09-20T08:59:37.965Z,10.89
2017-09-20T09:00:38.081Z,10.91
2017-09-20T09:01:38.061Z,10.94
2017-09-20T09:02:38.108Z,10.96
2017-09-20T09:03:38.154Z,10.99
2017-09-20T09:04:38.200Z,10.99
2017-09-20T09:05:38.313Z,10.96
2017-09-20T09:06:38.296Z,11.02
2017-09-20T09:07:38.342Z,11.03
2017-09-20T09:08:38.386Z,10.96
2017-09-20T09:09:38.437Z,11.06
2017-09-20T09:10:38.574Z,11.17
2017-09-20T09:11:38.530Z,11.32
2017-09-20T09:12:38.579Z,11.47
2017-09-20T09:13:38.626Z,11.50
2017-09-20T09:14:38.672Z,11.54
2017-09-20T09:15:38.806Z,11.75
2017-09-20T09:16:38.770Z,11.94
2017-09-20T09:17:38.816Z,11.93
2017-09-20T09:18:38.863Z,11.96
2017-09-20T09:19:38.912Z,12.04
2017-09-20T09:20:39.033Z,11.99
2017-09-20T09:21:39.008Z,11.62
2017-09-20T09:22:39.054Z,11.68
2017-09-20T09:23:39.101Z,11.59
2017-09-20T09:24:39.149Z,11.61
2017-09-20T09:25:39.265Z,11.57
2017-09-20T09:26:39.311Z,11.56
2017-09-20T09:27:39.292Z,11.65
2017-09-20T09:28:39.344Z,11.72
2017-09-20T09:29:39.388Z,11.61
2017-09-20T09:30:39.440Z,11.57
2017-09-20T09:31:39.549Z,11.52
2017-09-20T09:32:39.532Z,11.61
2017-09-20T09:33:39.579Z,11.52
2017-09-20T09:34:39.627Z,11.54
2017-09-20T09:35:39.674Z,11.46
2017-09-20T09:36:39.783Z,11.38
2017-09-20T09:37:39.772Z,11.39
2017-09-20T09:38:39.816Z,11.27
2017-09-20T09:39:39.868Z,11.27
2017-09-20T09:40:39.914Z,11.24
2017-09-20T09:41:40.034Z,11.25
2017-09-20T09:42:40.007Z,11.35
2017-09-20T09:43:40.054Z,11.35
2017-09-20T09:44:40.103Z,11.68
2017-09-20T09:45:40.151Z,12.02
2017-09-20T09:46:40.261Z,12.27
2017-09-20T09:47:40.313Z,12.26
2017-09-20T09:48:40.293Z,12.27
2017-09-20T09:49:40.342Z,12.29
2017-09-20T09:50:40.392Z,12.41
2017-09-20T09:51:40.441Z,12.64
2017-09-20T09:52:40.550Z,12.88
2017-09-20T09:53:40.533Z,13.04
2017-09-20T09:54:40.587Z,13.17
2017-09-20T09:55:40.632Z,12.93
2017-09-20T09:56:40.681Z,12.69
2017-09-20T09:57:40.793Z,12.51
2017-09-20T09:58:40.774Z,12.48
2017-09-20T09:59:40.828Z,12.51
2017-09-20T10:00:40.869Z,12.49
2017-09-20T10:01:40.918Z,12.49
2017-09-20T10:02:41.033Z,12.71
2017-09-20T10:03:41.017Z,12.93
2017-09-20T10:04:41.065Z,13.07
2017-09-20T10:05:41.111Z,13.51
2017-09-20T10:06:41.161Z,13.49
2017-09-20T10:07:41.279Z,13.49
2017-09-20T10:08:41.259Z,13.52
2017-09-20T10:09:41.309Z,12.99
2017-09-20T10:10:41.373Z,12.79
2017-09-20T10:11:41.402Z,12.39
2017-09-20T10:12:41.533Z,12.29
2017-09-20T10:13:41.505Z,12.26
2017-09-20T10:14:41.548Z,12.29
2017-09-20T10:15:41.600Z,12.33
2017-09-20T10:16:41.649Z,12.26
2017-09-20T10:17:41.762Z,12.24
2017-09-20T10:18:41.808Z,11.83
2017-09-20T10:19:41.797Z,11.71
2017-09-20T10:20:41.843Z,11.86
2017-09-20T10:21:41.893Z,12.04
2017-09-20T10:22:41.940Z,12.12
2017-09-20T10:23:42.051Z,12.42
2017-09-20T10:24:42.038Z,12.41
2017-09-20T10:25:42.086Z,12.79
2017-09-20T10:26:42.135Z,12.87
2017-09-20T10:27:42.184Z,13.02
2017-09-20T10:28:42.296Z,13.33
2017-09-20T10:29:42.282Z,13.22
2017-09-20T10:30:42.326Z,13.63
2017-09-20T10:31:42.383Z,13.58
2017-09-20T10:32:42.426Z,13.55
2017-09-20T10:33:42.539Z,13.88
2017-09-20T10:34:42.527Z,14.09
2017-09-20T10:35:42.571Z,13.99
2017-09-20T10:36:42.622Z,13.94
2017-09-20T10:37:42.669Z,13.71
2017-09-20T10:38:42.800Z,14.12
2017-09-20T10:39:42.765Z,14.61
2017-09-20T10:40:42.814Z,14.83
2017-09-20T10:41:42.867Z,14.94
2017-09-20T10:42:42.912Z,14.62
2017-09-20T10:43:43.027Z,14.37
2017-09-20T10:44:43.077Z,13.96
2017-09-20T10:45:43.062Z,13.65
2017-09-20T10:46:43.123Z,13.51
2017-09-20T10:47:43.161Z,13.30
2017-09-20T10:48:43.209Z,13.20
2017-09-20T10:49:43.329Z,13.07
2017-09-20T10:50:43.310Z,13.02
2017-09-20T10:51:43.359Z,13.03
2017-09-20T10:52:43.405Z,13.29
2017-09-20T10:53:43.459Z,13.58
2017-09-20T10:54:43.570Z,13.61
2017-09-20T10:55:43.555Z,13.92
2017-09-20T10:56:43.605Z,13.96
2017-09-20T10:57:43.653Z,13.80
2017-09-20T10:58:43.703Z,13.43
2017-09-20T10:59:43.818Z,13.20
2017-09-20T11:00:43.800Z,13.18
2017-09-20T11:01:43.853Z,13.18
2017-09-20T11:02:43.901Z,13.69
2017-09-20T11:03:43.953Z,13.95
2017-09-20T11:04:44.076Z,13.95
2017-09-20T11:05:44.046Z,13.73
2017-09-20T11:06:44.100Z,13.81
2017-09-20T11:07:44.147Z,14.10
2017-09-20T11:08:44.200Z,14.35
2017-09-20T11:09:44.315Z,14.37
2017-09-20T11:10:44.360Z,14.49
2017-09-20T11:11:44.345Z,13.80
2017-09-20T11:12:44.398Z,13.69
2017-09-20T11:13:44.447Z,13.59
2017-09-20T11:14:44.501Z,13.83
2017-09-20T11:15:44.608Z,13.54
2017-09-20T11:16:44.596Z,13.18
2017-09-20T11:17:44.642Z,13.30
2017-09-20T11:18:44.699Z,13.76
2017-09-20T11:19:44.741Z,14.02
2017-09-20T11:20:44.879Z,14.13
2017-09-20T11:21:44.845Z,14.43
2017-09-20T11:22:44.896Z,15.08
2017-09-20T11:23:44.943Z,15.08
2017-09-20T11:24:44.994Z,14.72
2017-09-20T11:25:45.114Z,15.02
2017-09-20T11:26:45.156Z,15.09
2017-09-20T11:27:45.142Z,15.20
2017-09-20T11:28:45.196Z,14.93
2017-09-20T11:29:45.248Z,14.87
2017-09-20T11:30:45.312Z,15.11
2017-09-20T11:31:45.409Z,15.48
2017-09-20T11:32:45.398Z,15.57
2017-09-20T11:33:45.447Z,15.20
2017-09-20T11:34:45.495Z,14.94
2017-09-20T11:35:45.550Z,14.99
2017-09-20T11:36:45.665Z,15.30
2017-09-20T11:37:45.651Z,15.51
2017-09-20T11:38:45.700Z,15.59
2017-09-20T11:39:45.752Z,15.61
2017-09-20T11:40:45.803Z,15.03
2017-09-20T11:41:45.918Z,15.12
2017-09-20T11:42:45.907Z,15.57
2017-09-20T11:43:45.957Z,15.48
2017-09-20T11:44:46.013Z,15.66
2017-09-20T11:45:46.062Z,16.03
2017-09-20T11:46:46.177Z,16.03
2017-09-20T11:47:46.166Z,16.11
2017-09-20T11:48:46.218Z,16.26
2017-09-20T11:49:46.270Z,16.03
2017-09-20T11:50:46.321Z,15.88
2017-09-20T11:51:46.457Z,15.56
2017-09-20T11:52:46.424Z,15.52
2017-09-20T11:53:46.476Z,15.33
2017-09-20T11:54:46.528Z,15.38
2017-09-20T11:55:46.582Z,15.11
2017-09-20T11:56:46.710Z,15.28
2017-09-20T11:57:46.683Z,15.11
2017-09-20T11:58:46.735Z,15.31
2017-09-20T11:59:46.788Z,15.57
2017-09-20T12:00:46.837Z,15.57
2017-09-20T12:01:46.964Z,15.28
2017-09-20T12:02:46.942Z,15.26
2017-09-20T12:03:46.990Z,14.94
2017-09-20T12:04:47.047Z,14.53
2017-09-20T12:05:47.096Z,14.53
2017-09-20T12:06:47.236Z,14.67
2017-09-20T12:07:47.202Z,14.52
2017-09-20T12:08:47.249Z,14.60
2017-09-20T12:09:47.300Z,14.47
2017-09-20T12:10:47.353Z,14.44
2017-09-20T12:11:47.484Z,14.49
2017-09-20T12:12:47.453Z,14.67
2017-09-20T12:13:47.512Z,14.71
2017-09-20T12:14:47.555Z,14.81
2017-09-20T12:15:47.606Z,14.86
2017-09-20T12:16:47.742Z,14.88
2017-09-20T12:17:47.709Z,14.69
2017-09-20T12:18:47.758Z,14.67
2017-09-20T12:19:47.808Z,14.74
2017-09-20T12:20:47.861Z,14.78
2017-09-20T12:21:48.001Z,14.78
2017-09-20T12:22:47.961Z,14.68
2017-09-20T12:23:48.007Z,14.72
2017-09-20T12:24:48.061Z,14.65
2017-09-20T12:25:48.110Z,14.50
2017-09-20T12:26:48.241Z,14.56
2017-09-20T12:27:48.216Z,14.46
2017-09-20T12:28:48.263Z,14.49
2017-09-20T12:29:48.315Z,14.61
2017-09-20T12:30:48.360Z,14.68
2017-09-20T12:31:48.497Z,14.78
2017-09-20T12:32:48.461Z,14.84
2017-09-20T12:33:48.511Z,14.99
2017-09-20T12:34:48.562Z,14.94
2017-09-20T12:35:48.611Z,14.86
2017-09-20T12:36:48.727Z,14.81
2017-09-20T12:37:48.775Z,14.86
2017-09-20T12:38:48.761Z,14.98
2017-09-20T12:39:48.810Z,15.09
2017-09-20T12:40:48.863Z,15.12
2017-09-20T12:41:48.911Z,15.15
2017-09-20T12:42:49.027Z,15.21
2017-09-20T12:43:49.009Z,15.30
2017-09-20T12:44:49.069Z,15.45
2017-09-20T12:45:49.118Z,15.52
2017-09-20T12:46:49.159Z,15.54
2017-09-20T12:47:49.277Z,15.54
2017-09-20T12:48:49.261Z,15.52
2017-09-20T12:49:49.309Z,15.82
2017-09-20T12:50:49.361Z,15.97
2017-09-20T12:51:49.413Z,16.03
2017-09-20T12:52:49.546Z,16.09
2017-09-20T12:53:49.513Z,16.14